EGBJEGHH

Guest
Details From EGBJ - Gloucester
To EGHH - Bournemouth
Flight Number -
Tags decoded
Created
Modified
Stats Distance 68 nm / 126 km
Max Altitude 0 ft / 0 m
Waypoints 3
Social Downloads 2
Likes 0
Share VATSIM

Download

Looking for another format? Having issues loading an existing format? Contact us
Advertisement - Login to hide

Notes

Requested: EGBJ MALBY EGHH BEWLI EGHH

Route

EGBJ MALBY EGHH

ID Type Via Altitude Latitude Longitude Leg Dist Tot Dist Heading (true) Name
O EGBJ APT - 0 ft / 0 m 51.89288˚ -2.16501˚ - 0 nm - Gloucester
MALBY FIX - 0 ft / 0 m 51.58115˚ -2.06172˚ 19 nm 19 nm 168° / 168° -
O EGHH APT - 0 ft / 0 m 50.78007˚ -1.84253˚ 48 nm 67 nm 170° / 170° Bournemouth

Altitude Profile

Advertisement - Login to hide

EGBJ

Details ICAO EGBJ (GLO)
Name Gloucester
Region United Kingdom
Timezone Europe/London (UTC+0.0)
Stats Elevation 101 ft / 31 m (AMSL)
Location 51.892883° -2.165011°
Runways 4
Magnetic Variation 1.218° W

METAR

EGBJ 121820Z 22006KT 9999 FEW012 SCT040 04/02 Q1006

Decode

TAF

Not found

Departure Runways

ID Width Length Bearing (true) Bearing (mag) Surface Threshold Offset Overrun Length
04 112 ft / 34 m 3,217 ft / 981 m 34.55° 35.77° Asphalt 0 ft / 0 m 0 ft / 0 m
04R 62 ft / 19 m 999 ft / 304 m 34.70° 35.92° Grass 0 ft / 0 m 0 ft / 0 m
09 121 ft / 37 m 4,635 ft / 1,413 m 83.72° 84.94° Asphalt 381 ft / 116 m 0 ft / 0 m
18 59 ft / 18 m 2,620 ft / 799 m 173.93° 175.15° Asphalt 0 ft / 0 m 0 ft / 0 m
22 112 ft / 34 m 3,217 ft / 981 m 214.56° 215.78° Asphalt 285 ft / 87 m 0 ft / 0 m
22L 62 ft / 19 m 999 ft / 304 m 214.71° 215.93° Grass 0 ft / 0 m 0 ft / 0 m
27 121 ft / 37 m 4,635 ft / 1,413 m 263.74° 264.96° Asphalt 1,017 ft / 310 m 0 ft / 0 m
36 59 ft / 18 m 2,620 ft / 799 m 353.93° 355.15° Asphalt 0 ft / 0 m 0 ft / 0 m

EGHH

Details ICAO EGHH (BOH)
Name Bournemouth
Region United Kingdom
Timezone Europe/London (UTC+0.0)
Stats Elevation 38 ft / 12 m (AMSL)
Location 50.780065° -1.842533°
Runways 1
Magnetic Variation 0.963° W

METAR

EGHH 121820Z 19006KT 9999 SCT038 06/04 Q1009

Decode

TAF

Not found

Destination Runways

ID Width Length Bearing (true) Bearing (mag) Surface Threshold Offset Overrun Length
08 151 ft / 46 m 7,440 ft / 2,268 m 75.27° 76.23° Asphalt 1,424 ft / 434 m 0 ft / 0 m
26 151 ft / 46 m 7,440 ft / 2,268 m 255.29° 256.25° Asphalt 0 ft / 0 m 328 ft / 100 m

Approach Navaids

Runway Type Ident Frequency Range Bearing (true) Bearing (mag) Slope Elevation
08 Localiser IBMH 110.50 MHz 18 nm / 33 km 75.09° 76.05° - 32 ft / 10 m (AMSL)
08 Glidescope IBMH 110.50 MHz 18 nm / 33 km 75.09° 76.05° 3.00° 30 ft / 9 m (AMSL)
08 DME IBMH 110.50 MHz 20 nm / 37 km - - - 31 ft / 9 m (AMSL)
26 Localiser IBH 110.50 MHz 18 nm / 33 km 255.41° 256.37° - 33 ft / 10 m (AMSL)
26 Glidescope IBH 110.50 MHz 18 nm / 33 km 255.41° 256.37° 3.00° 36 ft / 11 m (AMSL)
26 DME IBH 110.50 MHz 20 nm / 37 km - - - 31 ft / 9 m (AMSL)

Popular Alternatives